Time;durP1;ratioP1;P1;durP2;ratioP2;P2;SDS_P1;SDS_P2;PMS_P1;PMS_P2;Temp;Humidity;BMP_temperature;BMP_pressure;BME280_temperature;BME280_humidity;BME280_pressure;Samples;Min_cycle;Max_cycle;Signal;HPM_P1;HPM_P2
2023/10/02 00:01:11;;;;;;;29.27;15.05;;;21.30;99.90;;;21.20;84.96;101746.84;4996248;28;20115;-77
2023/10/02 00:03:41;;;;;;;27.38;15.43;;;21.30;99.90;;;21.77;85.14;101840.91;5012262;28;20399;-78
2023/10/02 00:06:16;;;;;;;26.65;14.88;;;21.30;99.90;;;21.76;85.07;101844.53;4996858;28;20053;-77
2023/10/02 00:08:49;;;;;;;25.45;14.88;;;21.30;99.90;;;21.76;84.89;101849.91;4996525;28;20096;-77
2023/10/02 00:14:22;;;;;;;27.33;16.30;;;21.20;99.90;;;21.67;84.96;101850.25;4996805;28;20053;-77
2023/10/02 00:17:07;;;;;;;28.50;15.25;;;21.10;99.90;;;21.20;84.76;101775.56;5006301;28;20042;-77
2023/10/02 00:19:39;;;;;;;29.88;16.23;;;21.10;99.90;;;21.62;84.91;101841.44;5004883;28;20053;-76
2023/10/02 00:22:34;;;;;;;29.65;16.20;;;21.10;99.90;;;21.67;84.64;101839.47;4996044;28;20057;-77
2023/10/02 00:25:00;;;;;;;28.48;16.13;;;21.10;99.90;;;21.65;84.65;101845.84;5019134;28;20051;-76
2023/10/02 00:27:31;;;;;;;26.23;15.32;;;21.10;99.90;;;21.79;84.25;101857.91;5004338;28;20389;-75
2023/10/02 00:30:00;;;;;;;26.98;15.88;;;21.20;99.90;;;21.84;84.09;101864.03;4996070;28;20372;-76
2023/10/02 00:32:31;;;;;;;26.42;16.08;;;21.30;99.90;;;21.82;83.88;101863.22;5007353;28;20063;-77
2023/10/02 00:35:00;;;;;;;26.90;16.63;;;21.30;99.90;;;21.68;84.05;101837.66;5017050;28;20073;-75
2023/10/02 00:37:44;;;;;;;27.02;15.40;;;21.20;99.90;;;21.82;84.29;101863.22;5013750;28;20050;-77
2023/10/02 00:40:20;;;;;;;27.15;16.02;;;21.20;99.90;;;21.82;84.15;101857.81;4995261;28;20133;-77
2023/10/02 00:42:55;;;;;;;27.70;14.95;;;21.30;99.90;;;21.80;83.78;101853.38;5003322;28;20038;-77
2023/10/02 00:45:23;;;;;;;24.00;15.70;;;21.20;99.90;;;21.78;83.74;101850.75;5006397;28;20053;-77
2023/10/02 00:47:53;;;;;;;27.88;16.10;;;21.30;99.90;;;21.79;83.75;101849.81;4995747;28;20077;-77
2023/10/02 00:50:23;;;;;;;30.77;16.98;;;21.20;99.90;;;21.75;83.69;101848.16;5020473;28;20077;-76
2023/10/02 00:52:58;;;;;;;27.98;17.00;;;21.20;99.90;;;21.50;83.89;101812.25;5002522;28;20045;-76
2023/10/02 00:55:32;;;;;;;27.15;16.02;;;21.20;99.90;;;21.67;83.92;101835.88;5011449;28;20050;-76
2023/10/02 00:58:05;;;;;;;27.23;16.75;;;21.10;99.90;;;21.64;83.86;101826.09;4995974;28;20096;-77
2023/10/02 01:00:36;;;;;;;26.50;16.00;;;21.10;99.90;;;21.65;83.77;101838.63;5011971;28;20042;-77
2023/10/02 01:03:09;;;;;;;25.38;15.85;;;21.10;99.90;;;21.60;83.54;101832.53;5013359;28;20061;-77
2023/10/02 01:05:50;;;;;;;26.88;16.52;;;21.10;99.90;;;21.54;83.27;101832.75;5008606;28;20058;-76
2023/10/02 01:08:24;;;;;;;32.00;16.83;;;21.00;99.90;;;21.47;83.59;101836.56;5000507;28;20053;-76
2023/10/02 01:10:59;;;;;;;27.77;16.98;;;21.00;99.90;;;21.37;84.10;101822.53;5001835;28;20104;-76
2023/10/02 01:13:34;;;;;;;31.50;17.75;;;20.90;99.90;;;21.33;84.47;101836.16;5012054;28;20072;-77
2023/10/02 01:16:07;;;;;;;28.48;16.45;;;20.80;99.90;;;21.27;84.83;101833.69;5002487;28;20050;-76
2023/10/02 01:18:37;;;;;;;29.05;17.35;;;20.70;99.90;;;21.20;85.48;101833.00;5004090;28;20129;-75
2023/10/02 01:21:11;;;;;;;27.17;16.30;;;20.70;99.90;;;21.18;85.54;101836.66;5011191;28;20042;-76
2023/10/02 01:24:06;;;;;;;30.30;17.27;;;20.60;99.90;;;21.15;85.50;101828.69;4998801;28;20136;-76
2023/10/02 01:26:40;;;;;;;26.77;16.77;;;20.60;99.90;;;21.18;85.61;101833.94;5015195;28;20041;-76
2023/10/02 01:29:11;;;;;;;28.95;16.23;;;20.60;99.90;;;21.19;85.53;101838.44;5013881;28;20146;-76
2023/10/02 01:31:44;;;;;;;26.80;16.27;;;20.60;99.90;;;21.16;85.49;101838.50;5024971;28;20050;-76
2023/10/02 01:34:33;;;;;;;27.98;16.10;;;20.60;99.90;;;21.16;85.59;101833.13;5020606;28;20077;-76
2023/10/02 01:37:32;;;;;;;27.42;17.20;;;20.60;99.90;;;20.95;85.46;101805.06;4998862;28;20078;-76
2023/10/02 01:40:28;;;;;;;29.15;16.27;;;20.60;99.90;;;21.22;85.28;101844.59;5006898;28;20054;-77
2023/10/02 01:42:43;;;;;;;29.05;16.60;;;20.60;99.90;;;21.27;85.16;101847.13;5008646;28;20065;-76
2023/10/02 01:45:12;;;;;;;29.27;16.60;;;20.70;99.90;;;21.30;84.93;101841.63;5013876;28;20061;-77
2023/10/02 01:47:41;;;;;;;28.67;17.05;;;20.70;99.90;;;21.30;84.69;101836.25;5007037;28;20475;-76
2023/10/02 01:50:10;;;;;;;28.00;16.90;;;20.70;99.90;;;21.27;84.92;101837.22;5021493;28;20042;-77
2023/10/02 01:52:41;;;;;;;27.85;16.55;;;20.80;99.90;;;21.28;85.05;101844.38;4998292;28;20048;-77
2023/10/02 01:55:29;;;;;;;28.63;16.65;;;20.70;99.90;;;21.24;84.83;101831.94;5011549;28;20448;-76
2023/10/02 01:58:16;;;;;;;29.80;17.35;;;20.70;99.90;;;21.34;84.71;101819.06;5003439;28;20435;-77
2023/10/02 02:00:46;;;;;;;28.17;16.20;;;20.80;99.90;;;21.35;84.63;101820.84;5013218;28;20058;-76
2023/10/02 02:03:15;;;;;;;29.83;17.20;;;20.90;99.90;;;21.35;84.91;101820.84;5023491;28;20038;-77
2023/10/02 02:05:46;;;;;;;28.25;16.85;;;20.80;99.90;;;21.36;84.72;101825.28;5004299;28;20050;-76
2023/10/02 02:08:24;;;;;;;28.63;17.50;;;20.80;99.90;;;21.37;84.82;101816.25;5015070;28;20042;-76
2023/10/02 02:11:14;;;;;;;29.10;17.98;;;20.80;99.90;;;21.35;84.88;101810.09;4998356;28;20400;-76
2023/10/02 02:13:46;;;;;;;29.63;17.98;;;20.80;99.90;;;21.32;84.65;101813.75;5014012;28;20160;-76
2023/10/02 02:16:21;;;;;;;28.70;17.02;;;20.80;99.90;;;21.30;84.62;101812.91;5013910;28;20428;-76
2023/10/02 02:18:53;;;;;;;30.20;17.30;;;20.80;99.90;;;21.28;84.74;101817.47;4998351;28;20041;-76
2023/10/02 02:21:25;;;;;;;31.67;16.98;;;20.80;99.90;;;21.25;84.63;101808.63;5019204;28;20058;-76
2023/10/02 02:24:06;;;;;;;29.20;16.65;;;20.70;99.90;;;21.24;84.39;101806.84;5007476;28;20042;-76
2023/10/02 02:26:39;;;;;;;31.00;18.27;;;20.70;99.90;;;21.22;84.19;101806.00;5012953;28;20132;-76
2023/10/02 02:29:23;;;;;;;28.02;16.88;;;20.70;99.90;;;21.22;84.21;101811.41;5021252;28;20058;-76
2023/10/02 02:31:54;;;;;;;29.92;17.73;;;20.70;99.90;;;21.21;84.45;101809.66;5008087;28;20194;-76
2023/10/02 02:34:25;;;;;;;30.63;17.55;;;20.70;99.90;;;21.21;84.28;101807.84;5012865;28;20451;-76
2023/10/02 02:36:57;;;;;;;27.92;17.40;;;20.70;99.90;;;21.10;83.71;101812.69;5006975;28;20050;-76
2023/10/02 02:39:25;;;;;;;30.52;17.05;;;20.60;99.90;;;21.06;83.63;101812.84;5004099;28;20078;-76
2023/10/02 02:42:09;;;;;;;29.98;17.63;;;20.50;99.90;;;21.03;84.00;101810.25;4997932;28;20541;-76
2023/10/02 02:44:43;;;;;;;28.70;17.52;;;20.50;99.90;;;21.06;84.36;101815.53;5000029;28;20117;-76
2023/10/02 02:47:14;;;;;;;29.42;18.05;;;20.50;99.90;;;21.09;84.65;101815.44;5013573;28;20454;-77
2023/10/02 02:49:51;;;;;;;29.85;18.42;;;20.50;99.90;;;21.07;84.97;101825.34;4998658;28;20125;-76
2023/10/02 02:52:25;;;;;;;30.38;17.65;;;20.50;99.90;;;21.04;85.10;101812.03;4996806;28;20049;-76
2023/10/02 02:54:59;;;;;;;28.50;18.45;;;20.50;99.90;;;20.89;85.27;101823.22;5003657;28;20069;-77
2023/10/02 02:57:32;;;;;;;30.55;18.45;;;20.50;99.90;;;20.89;85.29;101813.34;5006938;28;20591;-76
2023/10/02 03:02:52;;;;;;;28.77;17.70;;;20.30;99.90;;;20.69;84.66;101811.28;5004045;28;20074;-76
2023/10/02 03:05:25;;;;;;;29.58;17.17;;;20.30;99.90;;;20.65;85.11;101806.06;5007730;28;20042;-76
2023/10/02 03:07:54;;;;;;;29.02;17.60;;;20.20;99.90;;;20.58;85.47;101810.72;4996268;28;20046;-77
2023/10/02 03:10:25;;;;;;;29.52;18.15;;;20.10;99.90;;;20.53;84.91;101796.56;5005545;28;20403;-76
2023/10/02 03:12:55;;;;;;;25.95;17.20;;;20.00;99.90;;;20.55;85.11;101797.41;5003824;28;20060;-76
2023/10/02 03:15:45;;;;;;;32.10;18.30;;;20.00;99.90;;;20.52;85.18;101802.84;4996915;28;20132;-76
2023/10/02 03:20:58;;;;;;;31.55;18.80;;;19.90;99.90;;;20.40;85.84;101802.34;5011048;28;20093;-76
2023/10/02 03:23:28;;;;;;;35.42;19.60;;;19.90;99.90;;;20.34;86.31;101794.47;4996469;28;20767;-77
2023/10/02 03:25:56;;;;;;;29.15;19.30;;;19.80;99.90;;;20.27;86.52;101793.75;5007869;28;20101;-76
2023/10/02 03:28:28;;;;;;;32.10;18.55;;;19.80;99.90;;;20.26;87.68;101792.00;5002218;28;20077;-76
2023/10/02 03:30:57;;;;;;;33.15;18.73;;;19.70;99.90;;;20.23;88.72;101784.03;4999517;28;20046;-77
2023/10/02 03:33:31;;;;;;;30.23;17.83;;;19.70;99.90;;;20.24;89.57;101791.16;5008301;28;20072;-76
2023/10/02 03:36:08;;;;;;;28.60;17.65;;;19.70;99.90;;;20.23;89.81;101784.03;4999672;28;20053;-76
2023/10/02 03:38:41;;;;;;;28.73;17.88;;;19.70;99.90;;;20.29;89.93;101785.63;5000489;28;20058;-76
2023/10/02 03:41:13;;;;;;;35.33;18.92;;;19.80;99.90;;;20.20;89.81;101765.31;5009583;28;20065;-77
2023/10/02 03:43:44;;;;;;;31.10;17.83;;;19.80;99.90;;;20.30;89.83;101780.25;4998490;28;20046;-76
2023/10/02 03:46:16;;;;;;;31.85;19.13;;;19.80;99.90;;;20.30;89.67;101791.00;5003208;28;20050;-77
2023/10/02 03:48:51;;;;;;;32.60;18.33;;;19.80;99.90;;;20.30;89.83;101784.72;5007055;28;20112;-76
2023/10/02 03:51:36;;;;;;;30.05;18.05;;;19.80;99.90;;;20.30;89.93;101785.63;4996344;28;20046;-77
2023/10/02 03:54:20;;;;;;;31.27;18.98;;;19.80;99.90;;;20.30;89.82;101780.25;5003183;28;20058;-76
2023/10/02 03:56:51;;;;;;;33.15;18.05;;;19.80;99.90;;;20.35;89.89;101780.97;5008588;28;20062;-75
2023/10/02 03:59:25;;;;;;;32.95;18.85;;;19.80;99.90;;;20.41;89.84;101771.84;4995673;28;20668;-75
2023/10/02 04:01:57;;;;;;;31.77;18.70;;;19.90;99.90;;;20.45;89.63;101768.13;5012250;28;20132;-77
2023/10/02 04:04:32;;;;;;;32.80;19.52;;;19.90;99.90;;;20.48;89.38;101779.66;4998839;28;20514;-76
2023/10/02 04:07:01;;;;;;;29.27;17.20;;;20.00;99.90;;;20.51;89.08;101763.47;5009102;28;20065;-76
2023/10/02 04:09:30;;;;;;;30.27;17.98;;;20.00;99.90;;;20.57;88.89;101768.66;4999192;28;20041;-76
2023/10/02 04:12:04;;;;;;;29.60;17.88;;;20.00;99.90;;;20.59;88.71;101777.56;5001958;28;20093;-77
2023/10/02 04:14:38;;;;;;;28.63;17.08;;;20.10;99.90;;;20.57;88.61;101781.22;5008057;28;20045;-76
2023/10/02 04:17:14;;;;;;;31.73;18.20;;;20.10;99.90;;;20.47;88.84;101755.53;4996486;28;20064;-76
2023/10/02 04:19:48;;;;;;;32.55;18.17;;;20.10;99.90;;;20.60;88.85;101776.63;5011446;28;20069;-77
2023/10/02 04:22:19;;;;;;;31.90;18.00;;;20.00;99.90;;;20.61;88.88;101772.13;4998045;28;20336;-77
2023/10/02 04:24:58;;;;;;;28.98;17.67;;;20.10;99.90;;;20.57;88.72;101774.03;5008678;28;20055;-76
2023/10/02 04:28:00;;;;;;;29.33;17.80;;;20.10;99.90;;;20.55;88.43;101781.25;5000849;28;20061;-75
2023/10/02 04:30:24;;;;;;;38.72;19.23;;;20.00;99.90;;;20.61;88.39;101775.66;4996839;28;20050;-77
2023/10/02 04:32:59;;;;;;;36.55;19.02;;;20.10;99.90;;;20.62;88.40;101776.56;4995748;28;20393;-76
2023/10/02 04:35:46;;;;;;;29.50;17.83;;;20.10;99.90;;;20.63;88.47;101770.25;5002676;28;20057;-76
2023/10/02 04:38:14;;;;;;;29.50;18.00;;;20.10;99.90;;;20.64;88.56;101774.69;5008093;28;20042;-77
2023/10/02 04:40:51;;;;;;;32.50;18.70;;;20.10;99.90;;;20.63;88.47;101772.97;4996121;28;20045;-76
2023/10/02 04:43:19;;;;;;;30.65;19.10;;;20.10;99.90;;;20.64;88.40;101785.47;5012450;28;20129;-77
2023/10/02 04:45:52;;;;;;;33.78;19.45;;;20.10;99.90;;;20.48;88.44;101762.66;5017006;28;20050;-76
2023/10/02 04:48:26;;;;;;;35.55;18.50;;;20.10;99.90;;;20.60;88.53;101784.69;5012463;28;20050;-77
2023/10/02 04:50:56;;;;;;;31.75;19.35;;;20.00;99.90;;;20.61;88.66;101781.03;5002805;28;20034;-76
2023/10/02 04:53:24;;;;;;;30.03;18.40;;;20.10;99.90;;;20.61;88.74;101785.56;5004412;28;20043;-77
2023/10/02 04:56:21;;;;;;;34.42;19.42;;;20.10;99.90;;;20.47;89.06;101763.59;5010999;28;20135;-77
2023/10/02 04:58:50;;;;;;;30.70;18.15;;;20.10;99.90;;;20.56;89.20;101787.50;5003042;28;20444;-76
2023/10/02 05:01:25;;;;;;;34.97;19.00;;;20.10;99.90;;;20.59;88.94;101782.94;5004044;28;20054;-75
2023/10/02 05:03:53;;;;;;;34.67;19.45;;;20.10;99.90;;;20.59;88.88;101785.63;5012217;28;20088;-75
2023/10/02 05:09:19;;;;;;;33.75;20.00;;;20.10;99.90;;;20.54;88.95;101787.56;5004843;28;20042;-75
2023/10/02 05:12:03;;;;;;;30.75;19.58;;;20.00;99.90;;;20.53;88.88;101780.44;5011410;28;20050;-75
2023/10/02 05:14:47;;;;;;;32.30;19.75;;;20.00;99.90;;;20.49;89.11;101780.56;5002703;28;20080;-75
2023/10/02 05:17:38;;;;;;;32.42;20.05;;;20.00;99.90;;;20.45;89.37;101774.41;5002038;28;20046;-75
2023/10/02 05:20:15;;;;;;;37.50;20.27;;;20.00;99.90;;;20.36;89.56;101763.06;4999036;28;20050;-75
2023/10/02 05:22:43;;;;;;;34.03;19.88;;;19.90;99.90;;;20.32;89.77;101773.03;5014718;28;20045;-76
2023/10/02 05:25:18;;;;;;;34.35;19.75;;;19.80;99.90;;;20.31;89.68;101782.00;5001628;28;20038;-75
2023/10/02 05:27:47;;;;;;;29.85;17.88;;;19.80;99.90;;;20.17;88.45;101778.78;5010740;28;20049;-74
2023/10/02 05:30:18;;;;;;;30.17;19.60;;;19.70;99.90;;;19.99;89.13;101784.72;5001493;28;20049;-76
2023/10/02 05:32:48;;;;;;;29.10;18.65;;;19.50;99.90;;;19.98;89.73;101782.94;5003959;28;20049;-75
2023/10/02 05:35:23;;;;;;;31.55;19.80;;;19.40;99.90;;;19.92;90.46;101785.78;5009969;28;20060;-76
2023/10/02 05:37:54;;;;;;;32.75;19.45;;;19.30;99.90;;;19.85;90.99;101780.63;4999179;28;20061;-75
2023/10/02 05:40:38;;;;;;;37.92;20.42;;;19.30;99.90;;;19.94;91.18;101786.63;5014550;28;20100;-76
2023/10/02 05:43:17;;;;;;;30.92;18.90;;;19.30;99.90;;;19.98;91.35;101796.38;5015193;28;20408;-76
2023/10/02 05:45:50;;;;;;;32.15;19.65;;;19.40;99.90;;;20.02;91.36;101789.97;4999561;28;20387;-76
2023/10/02 05:48:37;;;;;;;33.97;19.58;;;19.50;99.90;;;19.92;91.62;101775.03;5014414;28;20052;-76
2023/10/02 05:51:09;;;;;;;35.58;20.05;;;19.50;99.90;;;20.10;91.27;101787.06;4999032;28;20050;-76
2023/10/02 05:53:53;;;;;;;33.17;20.42;;;19.60;99.90;;;20.14;91.23;101794.13;4998711;28;20054;-74
2023/10/02 05:56:21;;;;;;;32.72;19.83;;;19.60;99.90;;;20.13;91.33;101803.97;5003972;28;20050;-76
2023/10/02 05:58:49;;;;;;;31.48;19.40;;;19.60;99.90;;;20.20;91.15;101804.72;5008387;28;20103;-77
2023/10/02 06:01:23;;;;;;;35.95;19.90;;;19.70;99.90;;;20.21;91.29;101802.00;4998028;28;20054;-77
2023/10/02 06:04:00;;;;;;;32.42;19.30;;;19.70;99.90;;;20.20;91.35;101816.38;5007070;28;20447;-76
2023/10/02 06:06:35;;;;;;;33.85;19.73;;;19.70;99.90;;;20.28;91.45;101802.72;5006801;28;20046;-77
2023/10/02 06:09:13;;;;;;;41.10;22.45;;;19.80;99.90;;;20.22;91.58;101802.88;4998317;28;20047;-77
2023/10/02 06:12:05;;;;;;;36.95;21.65;;;19.80;99.90;;;20.28;91.65;101817.03;5007382;28;20042;-78
2023/10/02 06:14:38;;;;;;;35.38;21.17;;;19.80;99.90;;;20.33;91.56;101814.19;5008252;28;20137;-77
2023/10/02 06:17:11;;;;;;;39.08;21.55;;;19.80;99.90;;;20.41;91.45;101812.16;4998387;28;20048;-77
2023/10/02 06:19:43;;;;;;;33.42;20.83;;;19.80;99.90;;;20.45;91.35;101808.47;5006684;28;20136;-76
2023/10/02 06:22:14;;;;;;;35.03;21.52;;;19.90;99.90;;;20.48;91.23;101811.94;4994195;28;20042;-77
2023/10/02 06:24:43;;;;;;;39.08;20.65;;;19.90;99.90;;;20.55;91.13;101813.53;5009597;28;20057;-76
2023/10/02 06:27:14;;;;;;;38.53;21.38;;;20.00;99.90;;;20.60;91.04;101816.06;4998385;28;20070;-77
2023/10/02 06:29:47;;;;;;;35.05;20.92;;;20.00;99.90;;;20.51;90.87;101794.84;5005034;28;20054;-77
2023/10/02 06:32:19;;;;;;;35.72;21.02;;;20.10;99.90;;;20.65;90.77;101825.72;5007573;28;20073;-77
2023/10/02 06:34:51;;;;;;;37.70;20.98;;;20.10;99.90;;;20.64;90.59;101818.63;4997554;28;20050;-77
2023/10/02 06:37:33;;;;;;;32.83;21.35;;;20.20;99.90;;;20.71;90.62;101827.38;5007426;28;20446;-76
2023/10/02 06:40:04;;;;;;;34.80;21.27;;;20.20;99.90;;;20.73;90.49;101830.88;5006665;28;20054;-77
2023/10/02 06:42:34;;;;;;;35.90;20.80;;;20.20;99.90;;;20.72;90.68;101821.06;4997473;28;20042;-76
2023/10/02 06:45:05;;;;;;;35.67;21.50;;;20.20;99.90;;;20.74;90.82;101816.53;5008207;28;20121;-77
2023/10/02 06:47:34;;;;;;;38.13;22.05;;;20.30;99.90;;;20.72;90.57;101813.00;5003464;28;20107;-78
2023/10/02 06:50:23;;;;;;;30.87;19.87;;;20.20;99.90;;;20.68;90.40;101809.53;5000229;28;20064;-86
2023/10/02 06:52:53;;;;;;;39.67;21.95;;;20.20;99.90;;;20.40;90.63;101796.97;4999102;28;20515;-70
2023/10/02 06:55:26;;;;;;;38.25;21.10;;;20.00;99.90;;;20.53;90.75;101814.50;5012511;28;20058;-84
2023/10/02 06:57:56;;;;;;;38.35;21.33;;;20.00;99.90;;;20.60;90.90;101821.44;4999967;28;20108;-77
2023/10/02 07:00:36;;;;;;;38.95;22.02;;;20.00;99.90;;;20.55;91.17;101818.91;5009652;28;20038;-77
2023/10/02 07:03:08;;;;;;;34.10;21.08;;;20.00;99.90;;;20.56;91.42;101825.13;5001454;28;20085;-75
2023/10/02 07:05:39;;;;;;;36.58;20.63;;;20.00;99.90;;;20.60;91.54;101825.00;5001050;28;20097;-81
2023/10/02 07:08:21;;;;;;;35.78;21.10;;;20.10;99.90;;;20.65;91.63;101827.56;5008998;28;20045;-82
2023/10/02 07:10:50;;;;;;;33.53;21.10;;;20.10;99.90;;;20.68;91.82;101812.22;4999038;28;20061;-84
2023/10/02 07:13:22;;;;;;;33.47;20.27;;;20.20;99.90;;;20.66;92.16;101826.63;5002688;28;20038;-79
2023/10/02 07:15:55;;;;;;;36.45;18.80;;;20.10;99.90;;;20.64;92.63;101826.69;5009179;28;20373;-82
2023/10/02 07:18:35;;;;;;;32.83;19.65;;;20.10;99.90;;;20.60;92.98;101825.00;4997755;28;20143;-80
2023/10/02 07:21:07;;;;;;;33.22;20.55;;;20.00;99.90;;;20.65;93.23;101836.50;5013337;28;20061;-82
2023/10/02 07:23:37;;;;;;;31.08;19.95;;;20.10;99.90;;;20.64;93.86;101834.75;4998408;28;20038;-74
2023/10/02 07:26:14;;;;;;;42.13;23.30;;;20.10;99.90;;;20.70;94.10;101849.81;5007497;28;20054;-74
2023/10/02 07:28:50;;;;;;;39.03;22.30;;;20.10;99.90;;;20.79;93.87;101857.59;5000558;28;20075;-75
2023/10/02 07:31:19;;;;;;;37.20;21.92;;;20.20;99.90;;;20.86;93.77;101863.66;4999510;28;20065;-75
2023/10/02 07:33:48;;;;;;;40.38;24.00;;;20.30;99.90;;;20.83;93.67;101847.63;5008780;28;20411;-75
2023/10/02 07:36:18;;;;;;;37.47;23.98;;;20.40;99.90;;;20.97;93.35;101862.41;4998123;28;20099;-77
2023/10/02 07:38:47;;;;;;;41.13;24.17;;;20.40;99.90;;;21.01;93.25;101865.91;5018505;28;20554;-80
2023/10/02 07:41:23;;;;;;;38.03;24.92;;;20.50;99.90;;;21.15;92.91;101866.38;5006729;28;20721;-78
2023/10/02 07:43:53;;;;;;;42.25;25.83;;;20.60;99.90;;;21.18;93.06;101863.56;4996249;28;20437;-78
2023/10/02 07:46:23;;;;;;;37.45;24.10;;;20.70;99.90;;;21.10;93.32;101844.13;5005558;28;20443;-77
2023/10/02 07:48:57;;;;;;;41.70;24.15;;;20.70;99.90;;;21.25;93.25;101863.31;5019093;28;20115;-79
2023/10/02 07:51:35;;;;;;;44.22;25.63;;;20.70;99.90;;;21.28;93.20;101860.53;4996610;28;20046;-77
2023/10/02 07:54:04;;;;;;;37.90;24.27;;;20.80;99.90;;;21.32;93.00;101874.78;5006882;28;20040;-78
2023/10/02 07:56:33;;;;;;;39.13;23.75;;;20.80;99.90;;;21.39;93.14;101877.22;5002519;28;20104;-78
2023/10/02 07:59:02;;;;;;;41.08;26.45;;;20.90;99.90;;;21.43;93.19;101865.41;4998563;28;20105;-80
2023/10/02 08:01:33;;;;;;;38.10;24.08;;;20.90;99.90;;;21.46;93.35;101849.16;5007415;28;20401;-80
2023/10/02 08:04:03;;;;;;;38.50;24.80;;;21.00;99.90;;;21.62;93.18;101860.31;4999357;28;20133;-76
2023/10/02 08:06:36;;;;;;;39.13;22.98;;;21.10;99.90;;;21.69;93.50;101853.75;5001610;28;20492;-80
2023/10/02 08:09:35;;;;;;;43.38;24.95;;;21.20;99.90;;;21.79;93.40;101862.41;5008628;28;20042;-78
2023/10/02 08:12:08;;;;;;;44.95;26.38;;;21.30;99.90;;;21.71;93.12;101833.03;5000729;28;20107;-80
2023/10/02 08:14:40;;;;;;;39.50;25.70;;;21.30;99.90;;;21.84;93.08;101853.25;4999734;28;20042;-76
2023/10/02 08:17:18;;;;;;;42.05;25.40;;;21.40;99.90;;;21.83;92.86;101859.59;5008682;28;20053;-75
2023/10/02 08:19:56;;;;;;;45.20;26.85;;;21.40;99.90;;;21.82;93.20;101847.03;5017244;28;20049;-75
2023/10/02 08:22:35;;;;;;;43.35;26.67;;;21.40;99.90;;;21.79;93.67;101848.94;5004286;28;20050;-75
2023/10/02 08:25:13;;;;;;;47.08;26.85;;;21.40;99.90;;;21.82;94.07;101847.03;5012658;28;20151;-76
2023/10/02 08:27:43;;;;;;;50.13;28.65;;;21.40;99.90;;;21.82;94.18;101849.75;5002710;28;20139;-75
2023/10/02 08:30:27;;;;;;;41.13;26.17;;;21.40;99.90;;;21.92;94.29;101844.91;5004613;28;20046;-75
2023/10/02 08:33:05;;;;;;;49.35;27.90;;;21.50;99.90;;;21.93;94.34;101849.38;5010805;28;20049;-74
2023/10/02 08:35:46;;;;;;;42.15;26.58;;;21.60;99.90;;;22.02;93.94;101855.31;5003755;28;20065;-75
2023/10/02 08:38:22;;;;;;;43.83;27.30;;;21.60;99.90;;;22.18;93.98;101863.72;5003886;28;20050;-81
2023/10/02 08:40:57;;;;;;;43.55;26.75;;;21.70;99.90;;;22.33;93.54;101866.75;5011834;28;20160;-73
2023/10/02 08:43:27;;;;;;;43.20;26.05;;;21.90;99.90;;;22.51;93.46;101867.00;5002032;28;20061;-65
2023/10/02 08:45:56;;;;;;;43.50;26.38;;;22.00;99.90;;;22.58;92.02;101861.34;5004824;28;20503;-65
2023/10/02 08:48:26;;;;;;;42.20;25.80;;;22.10;99.90;;;22.69;91.58;101872.59;5010240;28;20057;-64
2023/10/02 08:50:57;;;;;;;41.83;26.02;;;22.30;99.90;;;22.76;91.40;101855.25;4999468;28;20056;-65
2023/10/02 08:53:27;;;;;;;44.20;27.00;;;22.30;99.90;;;22.90;91.47;101858.25;5007771;28;20058;-64
2023/10/02 08:56:22;;;;;;;40.17;25.55;;;22.40;99.90;;;23.17;91.49;101862.56;5008078;28;20384;-67
2023/10/02 08:59:15;;;;;;;44.50;26.88;;;22.70;99.90;;;23.42;90.87;101854.38;4999705;28;20077;-66
2023/10/02 09:01:40;;;;;;;44.70;25.98;;;23.00;99.90;;;23.58;90.08;101849.16;5005137;28;20050;-67
2023/10/02 09:04:29;;;;;;;45.38;25.92;;;23.20;99.90;;;23.81;88.57;101859.91;5010015;28;20132;-66
2023/10/02 09:07:14;;;;;;;39.05;24.02;;;23.40;99.90;;;24.02;87.52;101856.28;5000989;28;20455;-67
2023/10/02 09:09:54;;;;;;;42.08;25.77;;;23.60;99.90;;;24.10;87.40;101859.50;5003634;28;20050;-63
2023/10/02 09:12:24;;;;;;;;;;;23.70;99.90;;;24.15;86.03;101852.97;5011928;28;20130;-64
2023/10/02 09:14:54;;;;;;;29.88;20.95;;;23.80;99.90;;;24.18;84.80;101863.66;5001380;28;20011;-64
2023/10/02 09:17:23;;;;;;;37.17;23.15;;;23.80;99.90;;;24.21;84.58;101859.03;5005227;28;20114;-64
2023/10/02 09:20:00;;;;;;;35.50;23.00;;;23.80;99.90;;;24.33;84.51;101858.50;5009968;28;20042;-63
2023/10/02 09:22:29;;;;;;;38.22;24.60;;;23.90;99.90;;;24.35;83.84;101856.59;4999257;28;20056;-63
2023/10/02 09:25:12;;;;;;;36.72;22.15;;;23.90;99.90;;;24.34;83.68;101849.41;5007601;28;20054;-64
2023/10/02 09:27:57;;;;;;;41.90;23.60;;;23.90;99.90;;;24.39;83.27;101847.41;5008674;28;20121;-68
2023/10/02 09:30:38;;;;;;;39.00;23.63;;;23.90;99.90;;;24.39;82.98;101850.09;4998279;28;20050;-65
2023/10/02 09:33:22;;;;;;;39.65;24.45;;;24.00;99.90;;;24.34;82.74;101834.06;5014533;28;20096;-65
2023/10/02 09:36:17;;;;;;;38.87;23.30;;;23.90;99.90;;;24.29;82.88;101846.06;4998487;28;20097;-64
2023/10/02 09:39:31;;;;;;;33.97;22.30;;;23.90;99.90;;;24.31;83.20;101845.06;5004764;28;20776;-64
2023/10/02 09:42:06;;;;;;;36.80;23.13;;;23.90;99.90;;;24.27;83.02;101843.44;5011216;28;20064;-64
2023/10/02 09:44:45;;;;;;;36.35;23.40;;;23.90;99.90;;;24.29;83.11;101841.53;5001729;28;20464;-64
2023/10/02 09:47:15;;;;;;;39.42;24.20;;;23.90;99.90;;;24.32;83.57;101845.91;5002405;28;20057;-64
2023/10/02 09:50:10;;;;;;;40.35;25.08;;;23.90;99.90;;;24.36;82.93;101844.81;4995549;28;20093;-65
2023/10/02 09:52:58;;;;;;;41.78;25.10;;;23.90;99.90;;;24.25;81.87;101820.97;5006626;28;20050;-64
2023/10/02 09:55:46;;;;;;;33.72;23.27;;;23.90;99.90;;;24.32;81.58;101835.09;5009566;28;20046;-66
2023/10/02 09:58:28;;;;;;;37.53;23.98;;;23.90;99.90;;;24.34;82.73;101835.91;5008641;28;20085;-72
2023/10/02 10:01:37;;;;;;;35.75;22.98;;;23.90;99.90;;;23.97;81.99;101759.13;5021457;28;20411;-69
2023/10/02 10:04:32;;;;;;;37.42;22.90;;;24.00;99.90;;;24.67;81.61;101837.03;5000106;28;20068;-77
2023/10/02 10:07:32;;;;;;;40.47;24.88;;;24.20;99.90;;;24.61;81.15;101835.50;5014411;28;20406;-80
2023/10/02 10:10:27;;;;;;;35.70;22.83;;;24.30;99.90;;;24.74;81.88;101835.81;4998089;28;20096;-68
2023/10/02 10:12:58;;;;;;;35.60;22.83;;;24.40;99.90;;;24.63;81.21;101840.84;5001842;28;20514;-75
2023/10/02 10:15:31;;;;;;;35.75;22.50;;;24.30;99.90;;;24.88;84.98;101833.34;5010890;28;20080;-69
2023/10/02 10:18:03;;;;;;;40.75;23.00;;;24.50;99.90;;;24.97;82.45;101839.19;5000548;28;20041;-66
2023/10/02 10:20:30;;;;;;;34.85;19.95;;;24.60;99.90;;;24.91;80.24;101836.78;5003551;28;20069;-66
2023/10/02 10:23:31;;;;;;;34.47;20.38;;;24.60;99.90;;;25.06;79.04;101832.44;5008553;28;20050;-64
2023/10/02 10:26:08;;;;;;;30.17;19.58;;;24.70;99.90;;;25.27;78.35;101828.69;5001118;28;20046;-65
2023/10/02 10:28:50;;;;;;;31.15;20.02;;;24.90;99.90;;;25.57;77.69;101827.16;5025723;28;20475;-67
2023/10/02 10:31:33;;;;;;;29.50;18.75;;;25.20;99.90;;;25.88;76.13;101826.44;5010316;28;20054;-66
2023/10/02 10:34:01;;;;;;;31.08;20.10;;;25.50;99.90;;;26.07;75.83;101831.81;5002104;28;20120;-66
2023/10/02 10:36:39;;;;;;;31.17;20.05;;;25.70;99.90;;;26.19;74.60;101825.75;5016622;28;20078;-68
2023/10/02 10:39:52;;;;;;;24.52;15.85;;;25.90;99.90;;;26.35;72.43;101837.50;5009806;28;20038;-65
2023/10/02 10:42:23;;;;;;;26.33;14.07;;;26.00;99.90;;;26.27;71.11;101840.63;5003850;28;20084;-82
2023/10/02 10:44:57;;;;;;;21.85;13.20;;;26.00;99.90;;;26.25;71.20;101836.25;4997089;28;20090;-74
2023/10/02 10:47:39;;;;;;;24.40;14.43;;;25.90;99.90;;;26.23;71.58;101835.47;5008856;28;20101;-75